Moriarty, NM

2:29 PM MDT on June 26, 2017 (GMT -0600)
Moriarty

Weather History for K0E0 - March, 2013

Change the Weather History Date:

Thursday, March 7, 2013

  Actual Average (KABQ) Record (KABQ)
Temperature  
Mean Temperature 46 °F -  
Max Temperature 69 °F 60 °F 79 °F (1972)
Min Temperature 23 °F 31 °F 10 °F (1971)
Degree Days  
Heating Degree Days 19    
Moisture  
Dew Point 18 °F    
Average Humidity 42    
Maximum Humidity 86    
Minimum Humidity 10    
Precipitation  
Precipitation 0.00 in - - ()
Sea Level Pressure  
Sea Level Pressure 30.05 in    
Wind  
Wind Speed 5 mph (SSE)    
Max Wind Speed 21 mph    
Max Gust Speed 29 mph    
Visibility 10 miles    
Events      
Averages and records for this station are not official NWS values.
T = Trace of Precipitation, MM = Missing Value Source: NWS Daily Summary

Daily Weather History Graph

Daily Weather History Graph

Search for Another Location

Airport or City:

Trip Planner

Search our weather history database for the weather conditions in past years. The results will help you decide how hot, cold, wet, or windy it might be!

Date:

Astronomy

Mar. 07, 2013 Rise Set
Actual Time 6:25 AM MST 6:05 PM MST
Civil Twilight 5:59 AM MST 6:30 PM MST
Nautical Twilight 5:30 AM MST 6:59 PM MST
Astronomical Twilight 5:01 AM MST 7:29 PM MST
Moon 3:18 AM MST (3/7) 2:03 PM MST (3/7)
Length of Visible Light 12h 30m
Length of Day
11h 40m
Waning Crescent, 19% of the Moon is Illuminated
Mar 7
Waning Crescent
Mar 11
New
Mar 19
First Quarter
Mar 27
Full
Apr 2
Last Quarter

Hourly Weather History & Observations

Time (MST) Temp. Windchill Dew Point Humidity Pressure Visibility Wind Dir Wind Speed Gust Speed Precip Events Conditions
12:15 AM 30.2 °F 25.4 °F 21.9 °F 71% 30.07 in 10.0 mi North 4.6 mph - N/A   Clear
12:35 AM 29.8 °F 24.9 °F 22.1 °F 73% 30.07 in 10.0 mi ENE 4.6 mph - N/A   Clear
12:55 AM 32.9 °F - 22.8 °F 66% 30.08 in 10.0 mi Calm Calm - N/A   Clear
1:15 AM 36.1 °F 33.5 °F 22.8 °F 58% 30.07 in 10.0 mi WSW 3.5 mph - N/A   Clear
1:35 AM 40.6 °F 36.7 °F 21.7 °F 47% 30.07 in 10.0 mi WSW 5.8 mph - N/A   Clear
1:55 AM 27.0 °F 23.0 °F 20.8 °F 78% 30.07 in 10.0 mi NNE 3.5 mph - N/A   Clear
2:15 AM 28.2 °F - 21.4 °F 76% 30.07 in 10.0 mi Calm Calm - N/A   Clear
2:35 AM 30.4 °F - 21.7 °F 70% 30.07 in 10.0 mi Calm Calm - N/A   Clear
2:55 AM 27.3 °F - 21.2 °F 78% 30.06 in 10.0 mi Calm Calm - N/A   Clear
3:15 AM 25.5 °F - 20.1 °F 80% 30.06 in 10.0 mi Calm Calm - N/A   Clear
3:35 AM 28.4 °F 24.6 °F 20.8 °F 73% 30.06 in 10.0 mi North 3.5 mph - N/A   Clear
3:55 AM 25.9 °F 19.2 °F 21.0 °F 82% 30.06 in 10.0 mi NE 5.8 mph - N/A   Clear
4:15 AM 26.1 °F 20.5 °F 21.0 °F 81% 30.06 in 10.0 mi ENE 4.6 mph - N/A   Clear
4:35 AM 27.5 °F 23.6 °F 21.9 °F 80% 30.07 in 10.0 mi NE 3.5 mph - N/A   Clear
5:15 AM 24.6 °F - 20.7 °F 85% 30.08 in 10.0 mi Calm Calm - N/A   Clear
5:35 AM 23.9 °F - 19.9 °F 85% 30.08 in 10.0 mi Calm Calm - N/A   Clear
5:55 AM 25.9 °F 21.7 °F 21.0 °F 82% 30.08 in 10.0 mi North 3.5 mph - N/A   Clear
6:15 AM 23.2 °F 18.7 °F 19.6 °F 86% 30.09 in 10.0 mi NNE 3.5 mph - N/A   Clear
6:35 AM 24.4 °F - 20.3 °F 84% 30.09 in 10.0 mi Calm Calm - N/A   Clear
6:55 AM 24.8 °F 19.1 °F 20.8 °F 85% 30.10 in 10.0 mi NNW 4.6 mph - N/A   Clear
7:15 AM 26.6 °F 22.6 °F 21.7 °F 82% 30.11 in 10.0 mi North 3.5 mph - N/A   Clear
7:35 AM 31.3 °F 27.9 °F 23.9 °F 74% 30.11 in 10.0 mi North 3.5 mph - N/A   Clear
7:55 AM 34.0 °F - 25.3 °F 71% 30.12 in 10.0 mi Calm Calm - N/A   Clear
8:15 AM 39.9 °F - 26.1 °F 58% 30.12 in 10.0 mi Calm Calm - N/A   Clear
8:35 AM 44.8 °F 43.3 °F 25.7 °F 47% 30.12 in 10.0 mi NNE 3.5 mph - N/A   Clear
8:55 AM 47.3 °F - 22.3 °F 37% 30.11 in 10.0 mi Calm Calm - N/A   Clear
9:15 AM 51.3 °F - 21.2 °F 31% 30.11 in 10.0 mi Calm Calm - N/A   Clear
9:35 AM 53.6 °F - 20.7 °F 28% 30.11 in 10.0 mi Calm Calm - N/A   Clear
9:55 AM 56.3 °F - 19.9 °F 24% 30.11 in 10.0 mi NNE 3.5 mph - N/A   Clear
10:15 AM 58.5 °F - 18.7 °F 21% 30.10 in 10.0 mi Calm Calm - N/A   Clear
10:35 AM 60.4 °F - 18.5 °F 20% 30.10 in 10.0 mi Calm Calm - N/A   Clear
10:55 AM 61.9 °F - 19.0 °F 19% 30.10 in 10.0 mi SE 4.6 mph - N/A   Clear
11:15 AM 62.4 °F - 19.2 °F 19% 30.10 in 10.0 mi Calm Calm - N/A   Clear
11:35 AM 63.5 °F - 19.9 °F 19% 30.08 in 10.0 mi SSE 3.5 mph - N/A   Clear
11:55 AM 64.4 °F - 20.5 °F 19% 30.08 in 10.0 mi SSE 8.1 mph - N/A   Clear
12:15 PM 64.4 °F - 19.4 °F 18% 30.07 in 10.0 mi South 5.8 mph - N/A   Clear
12:35 PM 66.6 °F - 19.2 °F 16% 30.06 in 10.0 mi South 4.6 mph - N/A   Clear
12:55 PM 67.3 °F - 19.0 °F 16% 30.04 in 10.0 mi SSW 8.1 mph - N/A   Clear
1:15 PM 65.5 °F - 14.9 °F 14% 30.03 in 10.0 mi SW 11.5 mph - N/A   Clear
1:35 PM 68.2 °F - 15.4 °F 13% 30.02 in 10.0 mi SSW 18.4 mph 23.0 mph N/A   Clear
1:55 PM 68.9 °F - 16.0 °F 13% 30.02 in 10.0 mi SSW 13.8 mph 28.8 mph N/A   Clear
2:15 PM 69.1 °F - 15.1 °F 13% 30.01 in 10.0 mi SSW 12.7 mph 25.3 mph N/A   Clear
2:35 PM 69.3 °F - 15.8 °F 13% 30.00 in 10.0 mi South 17.3 mph 25.3 mph N/A   Clear
2:55 PM 68.9 °F - 14.0 °F 12% 30.00 in 10.0 mi SSW 16.1 mph 23.0 mph N/A   Clear
3:15 PM 68.4 °F - 14.0 °F 12% 30.00 in 10.0 mi South 13.8 mph 21.9 mph N/A   Clear
3:35 PM 68.2 °F - 11.3 °F 11% 29.99 in 10.0 mi SSW 19.6 mph 24.2 mph N/A   Clear
3:55 PM 68.2 °F - 9.1 °F 10% 29.99 in 10.0 mi South 20.7 mph 25.3 mph N/A   Clear
4:15 PM 67.8 °F - 9.3 °F 10% 29.99 in 10.0 mi SSW 18.4 mph 26.5 mph N/A   Clear
4:35 PM 66.9 °F - 9.9 °F 11% 29.98 in 10.0 mi SSW 20.7 mph 26.5 mph N/A   Clear
4:55 PM 66.4 °F - 9.3 °F 11% 29.98 in 10.0 mi SSW 15.0 mph - N/A   Clear
6:35 PM 51.8 °F - 12.6 °F 21% 30.00 in 10.0 mi South 10.4 mph - N/A   Clear
6:55 PM 49.5 °F - 13.6 °F 24% 30.00 in 10.0 mi South 8.1 mph - N/A   Clear
7:15 PM 46.6 °F - 13.8 °F 27% 30.00 in 10.0 mi South 8.1 mph - N/A   Clear
7:35 PM 48.7 °F - 14.9 °F 26% 30.01 in 10.0 mi South 11.5 mph - N/A   Clear
7:55 PM 45.1 °F 40.3 °F 15.3 °F 30% 30.01 in 10.0 mi South 9.2 mph - N/A   Clear
8:15 PM 45.1 °F 40.3 °F 15.8 °F 31% 30.01 in 10.0 mi South 9.2 mph - N/A   Mostly Cloudy
8:35 PM 42.8 °F 38.6 °F 16.5 °F 35% 30.02 in 10.0 mi South 6.9 mph - N/A   Scattered Clouds
8:55 PM 42.4 °F 37.0 °F 17.4 °F 37% 30.02 in 10.0 mi SSE 9.2 mph - N/A   Clear
9:15 PM 42.8 °F 38.0 °F 16.9 °F 35% 30.02 in 10.0 mi SSE 8.1 mph - N/A   Clear
9:35 PM 42.8 °F 37.5 °F 17.2 °F 36% 30.02 in 10.0 mi SSE 9.2 mph - N/A   Clear
9:55 PM 42.1 °F 37.7 °F 16.3 °F 35% 30.02 in 10.0 mi SSE 6.9 mph - N/A   Clear
10:15 PM 41.5 °F 37.8 °F 16.0 °F 36% 30.02 in 10.0 mi SSE 5.8 mph - N/A   Clear
10:35 PM 40.6 °F 35.4 °F 16.5 °F 38% 30.02 in 10.0 mi SE 8.1 mph - N/A   Clear
10:55 PM 42.8 °F 37.0 °F 16.7 °F 35% 30.02 in 10.0 mi SSE 10.4 mph - N/A   Clear
11:15 PM 41.5 °F 35.0 °F 17.6 °F 38% 30.03 in 10.0 mi SSE 11.5 mph - N/A   Clear
11:35 PM 43.7 °F 37.3 °F 17.4 °F 35% 30.04 in 10.0 mi SSE 12.7 mph - N/A   Clear
11:55 PM 43.0 °F 37.2 °F 17.4 °F 36% 30.04 in 10.0 mi SSE 10.4 mph - N/A   Clear